createdAt,value
2019-05-30T00:02:08.262Z,101125.88
2019-05-30T00:04:40.796Z,101124.59
2019-05-30T00:07:13.682Z,101124.93
2019-05-30T00:09:46.474Z,101121.95
2019-05-30T00:12:19.253Z,101117.84
2019-05-30T00:14:52.249Z,101122.98
2019-05-30T00:17:25.021Z,101117.89
2019-05-30T00:19:58.800Z,101120.30
2019-05-30T00:22:33.298Z,101121.67
2019-05-30T00:25:09.095Z,101117.09
2019-05-30T00:27:41.576Z,101107.18
2019-05-30T00:30:24.490Z,101110.34
2019-05-30T00:32:49.705Z,101109.39
2019-05-30T00:35:22.624Z,101110.05
2019-05-30T00:37:55.656Z,101110.22
2019-05-30T00:40:28.856Z,101105.08
2019-05-30T00:43:02.087Z,101101.97
2019-05-30T00:45:35.044Z,101105.03
2019-05-30T00:48:07.807Z,101106.16
2019-05-30T00:50:40.610Z,101107.20
2019-05-30T00:53:13.322Z,101117.23
2019-05-30T00:55:46.072Z,101110.97
2019-05-30T00:58:18.847Z,101111.22
2019-05-30T01:00:51.364Z,101114.50
2019-05-30T01:03:24.417Z,101109.02
2019-05-30T01:05:58.721Z,101112.42
2019-05-30T01:08:32.249Z,101105.66
2019-05-30T01:11:05.372Z,101108.02
2019-05-30T01:13:38.198Z,101100.22
2019-05-30T01:16:10.872Z,101100.31
2019-05-30T01:18:43.755Z,101094.59
2019-05-30T01:21:17.063Z,101090.89
2019-05-30T01:23:49.728Z,101091.80
2019-05-30T01:26:22.308Z,101084.80
2019-05-30T01:28:55.092Z,101083.50
2019-05-30T01:31:28.710Z,101086.91
2019-05-30T01:34:01.648Z,101091.34
2019-05-30T01:36:34.874Z,101099.08
2019-05-30T01:39:08.897Z,101110.17
2019-05-30T01:41:41.986Z,101105.41
2019-05-30T01:44:14.766Z,101094.95
2019-05-30T01:46:47.188Z,101094.24
2019-05-30T01:49:20.033Z,101098.67
2019-05-30T01:51:53.432Z,101108.09
2019-05-30T01:54:26.288Z,101108.09
2019-05-30T01:56:59.082Z,101102.70
2019-05-30T01:59:31.651Z,101103.81
2019-05-30T02:02:07.095Z,101104.39
2019-05-30T02:04:39.894Z,101104.72
2019-05-30T02:07:13.378Z,101104.14
2019-05-30T02:09:46.158Z,101108.50
2019-05-30T02:12:19.164Z,101110.36
2019-05-30T02:14:51.773Z,101102.16
2019-05-30T02:17:25.712Z,101108.09
2019-05-30T02:19:59.676Z,101118.24
2019-05-30T02:22:32.430Z,101112.69
2019-05-30T02:25:06.448Z,101111.20
2019-05-30T02:27:41.276Z,101114.44
2019-05-30T02:30:15.164Z,101118.22
2019-05-30T02:32:48.133Z,101132.06
2019-05-30T02:35:21.067Z,101127.63
2019-05-30T02:37:53.728Z,101132.91
2019-05-30T02:40:26.457Z,101129.55
2019-05-30T02:43:01.017Z,101127.44
2019-05-30T02:45:33.826Z,101128.94
2019-05-30T02:48:07.369Z,101127.48
2019-05-30T02:50:40.209Z,101127.16
2019-05-30T02:53:13.491Z,101130.93
2019-05-30T02:55:46.907Z,101131.42
2019-05-30T02:58:19.389Z,101132.95
2019-05-30T03:00:52.355Z,101138.56
2019-05-30T03:03:24.737Z,101130.97
2019-05-30T03:05:57.833Z,101128.85
2019-05-30T03:08:30.394Z,101129.20
2019-05-30T03:11:04.462Z,101139.73
2019-05-30T03:13:37.297Z,101137.28
2019-05-30T03:16:11.810Z,101130.80
2019-05-30T03:18:44.256Z,101134.73
2019-05-30T03:21:17.081Z,101140.12
2019-05-30T03:23:50.123Z,101137.30
2019-05-30T03:26:23.055Z,101133.06
2019-05-30T03:28:55.320Z,101139.83
2019-05-30T03:31:30.505Z,101136.66
2019-05-30T03:34:08.199Z,101129.05
2019-05-30T03:36:37.670Z,101137.57
2019-05-30T03:39:14.497Z,101141.38
2019-05-30T03:41:45.469Z,101135.61
2019-05-30T03:44:18.780Z,101139.41
2019-05-30T03:46:57.519Z,101137.17
2019-05-30T03:49:32.763Z,101136.31
2019-05-30T03:52:09.983Z,101128.85
2019-05-30T03:54:44.042Z,101134.50
2019-05-30T03:57:19.813Z,101139.00
2019-05-30T04:00:02.122Z,101138.03
2019-05-30T04:02:57.441Z,101142.29
2019-05-30T04:05:33.459Z,101143.22
2019-05-30T04:08:11.884Z,101141.88
2019-05-30T04:10:46.617Z,101147.16
2019-05-30T04:13:42.009Z,101152.37
2019-05-30T04:16:15.838Z,101153.88
2019-05-30T04:18:48.110Z,101160.75
2019-05-30T04:21:21.697Z,101164.99
2019-05-30T04:23:54.277Z,101165.69
2019-05-30T04:26:27.161Z,101171.53
2019-05-30T04:28:59.919Z,101176.00
2019-05-30T04:31:33.861Z,101173.45
2019-05-30T04:34:08.188Z,101175.86
2019-05-30T04:36:42.051Z,101178.12
2019-05-30T04:39:15.245Z,101168.80
2019-05-30T04:41:48.557Z,101168.25
2019-05-30T04:44:21.151Z,101169.45
2019-05-30T04:46:53.920Z,101165.72
2019-05-30T04:49:26.601Z,101169.23
2019-05-30T04:51:59.478Z,101162.14
2019-05-30T04:54:31.957Z,101162.25
2019-05-30T04:57:04.983Z,101153.70
2019-05-30T04:59:37.724Z,101148.28
2019-05-30T05:02:13.551Z,101161.31
2019-05-30T05:04:46.173Z,101159.20
2019-05-30T05:07:19.826Z,101163.23
2019-05-30T05:09:52.619Z,101158.87
2019-05-30T05:12:25.222Z,101169.93
2019-05-30T05:14:57.788Z,101168.14
2019-05-30T05:17:30.681Z,101171.27
2019-05-30T05:20:03.298Z,101175.42
2019-05-30T05:22:35.738Z,101173.59
2019-05-30T05:25:08.513Z,101170.41
2019-05-30T05:27:41.321Z,101174.94
2019-05-30T05:30:14.168Z,101178.43
2019-05-30T05:32:47.049Z,101181.70
2019-05-30T05:35:20.884Z,101179.63
2019-05-30T05:37:53.551Z,101183.48
2019-05-30T05:40:26.435Z,101177.52
2019-05-30T05:42:59.217Z,101176.48
2019-05-30T05:45:31.697Z,101178.41
2019-05-30T05:48:04.473Z,101179.98
2019-05-30T05:50:36.855Z,101178.58
2019-05-30T05:53:09.711Z,101180.13
2019-05-30T05:55:42.217Z,101179.87
2019-05-30T05:58:14.993Z,101185.58
2019-05-30T06:00:48.399Z,101183.34
2019-05-30T06:03:22.233Z,101185.04
2019-05-30T06:05:55.180Z,101180.27
2019-05-30T06:08:27.965Z,101183.36
2019-05-30T06:11:00.738Z,101172.13
2019-05-30T06:13:33.493Z,101170.95
2019-05-30T06:16:06.104Z,101170.33
2019-05-30T06:18:38.674Z,101166.94
2019-05-30T06:21:11.458Z,101173.02
2019-05-30T06:23:45.732Z,101179.71
2019-05-30T06:26:18.211Z,101177.84
2019-05-30T06:28:51.016Z,101182.35
2019-05-30T06:31:24.484Z,101166.81
2019-05-30T06:33:57.035Z,101167.88
2019-05-30T06:36:29.884Z,101175.12
2019-05-30T06:39:02.765Z,101175.47
2019-05-30T06:41:35.571Z,101174.39
2019-05-30T06:44:08.469Z,101176.64
2019-05-30T06:46:40.493Z,101181.70
2019-05-30T06:49:13.393Z,101181.70
2019-05-30T06:51:45.770Z,101190.67
2019-05-30T06:54:18.385Z,101191.34
2019-05-30T06:56:50.926Z,101183.70
2019-05-30T06:59:23.690Z,101185.35
2019-05-30T07:01:56.182Z,101189.56
2019-05-30T07:04:34.513Z,101189.02
2019-05-30T07:07:05.988Z,101196.44
2019-05-30T07:09:37.298Z,101192.29
2019-05-30T07:12:12.058Z,101184.19
2019-05-30T07:14:44.290Z,101185.20
2019-05-30T07:17:17.176Z,101186.56
2019-05-30T07:19:49.736Z,101186.40
2019-05-30T07:22:23.469Z,101181.81
2019-05-30T07:24:56.051Z,101189.17
2019-05-30T07:27:29.867Z,101191.17
2019-05-30T07:30:02.406Z,101181.63
2019-05-30T07:32:36.124Z,101183.20
2019-05-30T07:35:08.983Z,101186.58
2019-05-30T07:37:41.583Z,101185.80
2019-05-30T07:40:19.423Z,101184.78
2019-05-30T07:42:49.333Z,101182.81
2019-05-30T07:45:22.553Z,101183.39
2019-05-30T07:47:55.045Z,101182.02
2019-05-30T07:50:28.349Z,101181.81
2019-05-30T07:53:01.043Z,101180.61
2019-05-30T07:55:33.744Z,101182.63
2019-05-30T07:58:06.090Z,101181.03
2019-05-30T08:00:38.984Z,101184.98
2019-05-30T08:03:11.861Z,101188.36
2019-05-30T08:05:44.519Z,101184.77
2019-05-30T08:08:17.124Z,101186.16
2019-05-30T08:10:49.898Z,101181.56
2019-05-30T08:13:22.458Z,101185.34
2019-05-30T08:15:55.063Z,101181.95
2019-05-30T08:18:27.719Z,101183.34
2019-05-30T08:21:00.497Z,101178.55
2019-05-30T08:23:34.272Z,101183.14
2019-05-30T08:26:06.911Z,101180.94
2019-05-30T08:28:42.552Z,101185.25
2019-05-30T08:31:13.796Z,101184.96
2019-05-30T08:33:47.547Z,101188.05
2019-05-30T08:36:21.206Z,101187.12
2019-05-30T08:38:53.967Z,101180.78
2019-05-30T08:41:26.663Z,101179.57
2019-05-30T08:43:59.457Z,101182.31
2019-05-30T08:46:32.431Z,101182.17
2019-05-30T08:49:05.936Z,101184.81
2019-05-30T08:51:38.396Z,101176.68
2019-05-30T08:54:13.718Z,101182.10
2019-05-30T08:56:45.594Z,101184.25
2019-05-30T08:59:18.294Z,101189.81
2019-05-30T09:01:53.151Z,101189.25
2019-05-30T09:04:25.296Z,101185.06
2019-05-30T09:06:57.770Z,101179.64
2019-05-30T09:09:30.544Z,101185.81
2019-05-30T09:12:03.227Z,101185.98
2019-05-30T09:14:37.388Z,101189.36
2019-05-30T09:17:10.461Z,101193.17
2019-05-30T09:19:43.282Z,101186.94
2019-05-30T09:22:16.815Z,101190.31
2019-05-30T09:24:49.662Z,101190.38
2019-05-30T09:27:22.580Z,101182.00
2019-05-30T09:29:55.240Z,101177.45
2019-05-30T09:32:27.844Z,101181.83
2019-05-30T09:35:00.413Z,101175.72
2019-05-30T09:37:33.179Z,101175.59
2019-05-30T09:40:11.190Z,101178.00
2019-05-30T09:42:44.758Z,101168.97
2019-05-30T09:45:19.299Z,101178.95
2019-05-30T09:47:52.006Z,101175.91
2019-05-30T09:50:24.689Z,101174.23
2019-05-30T09:52:57.592Z,101173.09
2019-05-30T09:55:30.147Z,101171.39
2019-05-30T09:58:02.726Z,101170.81
2019-05-30T10:00:36.979Z,101166.50
2019-05-30T10:03:09.461Z,101162.45
2019-05-30T10:05:43.394Z,101163.12
2019-05-30T10:08:16.317Z,101168.66
2019-05-30T10:10:49.628Z,101170.17
2019-05-30T10:13:29.125Z,101167.42
2019-05-30T10:16:19.039Z,101165.89
2019-05-30T10:22:57.470Z,101163.30
2019-05-30T10:25:30.254Z,101168.46
2019-05-30T10:28:02.927Z,101167.31
2019-05-30T10:30:35.811Z,101169.37
2019-05-30T10:33:08.486Z,101167.80
2019-05-30T10:35:41.486Z,101166.52
2019-05-30T10:50:03.979Z,101172.66
2019-05-30T10:53:07.800Z,101172.77
2019-05-30T10:55:43.374Z,101175.16
2019-05-30T10:58:16.048Z,101174.66
2019-05-30T11:00:55.808Z,101168.77
2019-05-30T11:03:29.080Z,101166.69
2019-05-30T11:06:23.071Z,101173.21
2019-05-30T11:08:58.921Z,101172.54
2019-05-30T11:11:31.477Z,101177.08
2019-05-30T11:14:04.213Z,101168.27
2019-05-30T11:16:36.738Z,101169.63
2019-05-30T11:19:10.641Z,101175.26
2019-05-30T11:21:43.135Z,101167.04
2019-05-30T11:24:16.010Z,101168.20
2019-05-30T11:26:50.671Z,101160.98
2019-05-30T11:29:22.902Z,101170.27
2019-05-30T11:31:56.941Z,101177.34
2019-05-30T11:34:29.591Z,101177.42
2019-05-30T11:37:18.102Z,101177.65
2019-05-30T11:39:36.403Z,101166.17
2019-05-30T11:42:09.183Z,101167.74
2019-05-30T11:44:42.662Z,101159.36
2019-05-30T11:47:15.361Z,101165.86
2019-05-30T11:49:49.493Z,101169.41
2019-05-30T11:52:22.055Z,101171.98
2019-05-30T11:54:55.754Z,101177.91
2019-05-30T11:57:28.440Z,101181.36
2019-05-30T12:00:01.253Z,101179.06
2019-05-30T12:02:33.891Z,101173.28
2019-05-30T12:05:07.913Z,101166.03
2019-05-30T12:07:40.591Z,101166.03
2019-05-30T12:10:13.897Z,101175.34
2019-05-30T12:12:46.362Z,101177.13
2019-05-30T12:15:20.713Z,101180.02
2019-05-30T12:17:53.352Z,101176.67
2019-05-30T12:20:26.530Z,101172.36
2019-05-30T12:23:00.006Z,101173.09
2019-05-30T12:25:32.633Z,101179.36
2019-05-30T12:28:05.391Z,101178.02
2019-05-30T12:30:37.886Z,101180.25
2019-05-30T12:33:10.664Z,101179.70
2019-05-30T12:35:43.238Z,101183.69
2019-05-30T12:38:16.023Z,101181.08
2019-05-30T12:40:48.681Z,101181.99
2019-05-30T12:51:09.026Z,101175.41
2019-05-30T12:53:41.664Z,101171.82
2019-05-30T12:56:14.491Z,101179.59
2019-05-30T12:58:47.210Z,101181.16
2019-05-30T13:01:19.958Z,101182.20
2019-05-30T13:03:52.553Z,101179.89
2019-05-30T13:06:25.412Z,101181.77
2019-05-30T13:08:58.849Z,101182.44
2019-05-30T13:11:31.921Z,101174.39
2019-05-30T13:14:05.059Z,101179.09
2019-05-30T13:16:37.688Z,101180.32
2019-05-30T13:19:10.735Z,101169.13
2019-05-30T13:21:43.139Z,101178.69
2019-05-30T13:24:15.832Z,101179.70
2019-05-30T13:26:48.548Z,101179.67
2019-05-30T13:29:21.323Z,101177.36
2019-05-30T13:31:53.961Z,101169.14
2019-05-30T13:34:26.762Z,101170.52
2019-05-30T13:36:59.239Z,101170.85
2019-05-30T13:39:32.017Z,101168.81
2019-05-30T13:42:05.864Z,101161.10
2019-05-30T13:44:38.499Z,101154.69
2019-05-30T13:47:11.383Z,101148.08
2019-05-30T13:49:44.150Z,101156.29
2019-05-30T13:52:16.943Z,101153.34
2019-05-30T13:54:50.032Z,101158.61
2019-05-30T13:57:23.103Z,101149.19
2019-05-30T13:59:55.604Z,101149.30
2019-05-30T14:02:28.392Z,101152.93
2019-05-30T14:05:02.250Z,101149.38
2019-05-30T14:07:34.767Z,101149.80
2019-05-30T14:10:10.510Z,101140.66
2019-05-30T14:12:43.305Z,101149.02
2019-05-30T14:15:16.298Z,101149.41
2019-05-30T14:17:48.871Z,101149.03
2019-05-30T14:20:21.537Z,101149.22
2019-05-30T14:22:54.433Z,101148.23
2019-05-30T14:25:27.111Z,101149.83
2019-05-30T14:27:59.867Z,101150.81
2019-05-30T14:30:32.976Z,101152.81
2019-05-30T14:33:06.090Z,101152.22
2019-05-30T14:35:38.546Z,101152.58
2019-05-30T14:38:11.325Z,101149.80
2019-05-30T14:40:43.906Z,101152.77
2019-05-30T14:43:16.793Z,101154.17
2019-05-30T14:45:49.479Z,101151.77
2019-05-30T14:48:22.054Z,101157.76
2019-05-30T14:50:54.829Z,101157.76
2019-05-30T14:53:27.718Z,101156.35
2019-05-30T14:56:00.587Z,101159.55
2019-05-30T14:58:33.290Z,101154.96
2019-05-30T15:01:07.026Z,101150.59
2019-05-30T15:03:39.847Z,101149.38
2019-05-30T15:06:15.382Z,101145.19
2019-05-30T15:08:46.743Z,101143.19
2019-05-30T15:11:19.550Z,101149.34
2019-05-30T15:13:52.225Z,101147.72
2019-05-30T15:16:24.902Z,101152.50
2019-05-30T15:18:57.560Z,101144.75
2019-05-30T15:21:30.268Z,101145.59
2019-05-30T15:24:05.658Z,101144.00
2019-05-30T15:26:38.295Z,101144.20
2019-05-30T15:29:12.170Z,101138.84
2019-05-30T15:31:44.713Z,101140.62
2019-05-30T15:34:17.250Z,101146.40
2019-05-30T15:36:49.825Z,101145.16
2019-05-30T15:39:32.418Z,101139.66
2019-05-30T15:41:56.607Z,101138.32
2019-05-30T15:44:29.173Z,101142.10
2019-05-30T15:47:02.085Z,101134.47
2019-05-30T15:49:34.551Z,101135.80
2019-05-30T15:52:06.957Z,101127.95
2019-05-30T15:54:39.289Z,101122.84
2019-05-30T15:57:13.263Z,101124.52
2019-05-30T15:59:45.870Z,101125.95
2019-05-30T16:02:20.405Z,101142.16
2019-05-30T16:04:52.933Z,101136.05
2019-05-30T16:07:26.372Z,101135.77
2019-05-30T16:09:59.043Z,101134.69
2019-05-30T16:12:31.845Z,101135.00
2019-05-30T16:15:08.008Z,101131.11
2019-05-30T16:17:40.365Z,101126.86
2019-05-30T16:20:15.848Z,101136.84
2019-05-30T16:22:48.724Z,101139.73
2019-05-30T16:25:21.768Z,101137.41
2019-05-30T16:27:54.481Z,101140.61
2019-05-30T16:30:27.993Z,101134.11
2019-05-30T16:33:00.961Z,101137.20
2019-05-30T16:35:34.476Z,101143.56
2019-05-30T16:38:07.233Z,101142.77
2019-05-30T16:40:39.721Z,101143.52
2019-05-30T16:43:12.502Z,101143.52
2019-05-30T16:45:45.184Z,101143.70
2019-05-30T16:48:18.361Z,101142.72
2019-05-30T16:57:42.100Z,101135.28
2019-05-30T17:00:15.953Z,101130.42
2019-05-30T17:02:52.056Z,101137.45
2019-05-30T17:05:24.844Z,101137.10
2019-05-30T17:08:00.388Z,101141.73
2019-05-30T17:10:33.546Z,101137.63
2019-05-30T17:13:06.052Z,101140.62
2019-05-30T17:15:38.940Z,101140.09
2019-05-30T17:18:11.532Z,101141.97
2019-05-30T17:20:44.512Z,101139.59
2019-05-30T17:23:17.183Z,101147.45
2019-05-30T17:25:50.067Z,101147.58
2019-05-30T17:28:22.953Z,101148.74
2019-05-30T17:30:55.616Z,101149.95
2019-05-30T17:33:28.545Z,101150.71
2019-05-30T17:36:01.196Z,101153.35
2019-05-30T17:38:33.983Z,101152.22
2019-05-30T17:41:08.094Z,101157.58
2019-05-30T17:43:40.761Z,101159.17
2019-05-30T17:46:13.458Z,101156.81
2019-05-30T17:48:45.910Z,101159.97
2019-05-30T17:51:19.691Z,101156.22
2019-05-30T17:53:53.335Z,101159.58
2019-05-30T17:56:26.199Z,101159.98
2019-05-30T17:58:58.799Z,101167.27
2019-05-30T18:01:31.681Z,101163.94
2019-05-30T18:04:04.878Z,101166.51
2019-05-30T18:06:38.754Z,101167.78
2019-05-30T18:09:13.733Z,101177.17
2019-05-30T18:11:54.908Z,101185.28
2019-05-30T18:14:29.199Z,101184.71
2019-05-30T18:17:01.987Z,101180.89
2019-05-30T18:19:35.088Z,101184.82
2019-05-30T18:22:08.392Z,101187.56
2019-05-30T18:24:41.677Z,101185.99
2019-05-30T18:27:15.897Z,101189.97
2019-05-30T18:29:48.354Z,101188.40
2019-05-30T18:32:21.978Z,101187.94
2019-05-30T18:34:57.367Z,101195.79
2019-05-30T18:37:28.766Z,101192.50
2019-05-30T18:40:01.612Z,101185.31
2019-05-30T18:42:35.132Z,101185.11
2019-05-30T18:45:12.130Z,101188.95
2019-05-30T18:47:45.634Z,101189.08
2019-05-30T18:50:18.635Z,101191.25
2019-05-30T18:52:51.792Z,101192.42
2019-05-30T18:55:24.615Z,101196.09
2019-05-30T18:57:57.067Z,101194.95
2019-05-30T19:00:30.974Z,101196.09
2019-05-30T19:03:04.792Z,101200.65
2019-05-30T19:05:37.453Z,101205.95
2019-05-30T19:08:12.124Z,101207.61
2019-05-30T19:10:44.564Z,101208.09
2019-05-30T19:13:17.185Z,101214.65
2019-05-30T19:15:52.684Z,101207.39
2019-05-30T19:18:25.482Z,101208.00
2019-05-30T19:20:58.133Z,101208.95
2019-05-30T19:23:34.330Z,101213.33
2019-05-30T19:26:08.304Z,101215.17
2019-05-30T19:28:41.348Z,101217.73
2019-05-30T19:31:14.814Z,101218.20
2019-05-30T19:33:47.903Z,101213.95
2019-05-30T19:36:20.591Z,101212.02
2019-05-30T19:38:54.775Z,101212.58
2019-05-30T19:41:44.441Z,101209.03
2019-05-30T19:44:02.188Z,101204.55
2019-05-30T19:46:34.765Z,101209.94
2019-05-30T19:49:08.649Z,101204.55
2019-05-30T19:51:40.511Z,101209.03
2019-05-30T19:54:16.306Z,101206.52
2019-05-30T19:56:49.586Z,101208.95
2019-05-30T19:59:22.033Z,101210.20
2019-05-30T20:01:54.957Z,101209.89
2019-05-30T20:04:32.227Z,101206.23
2019-05-30T20:07:08.282Z,101201.53
2019-05-30T20:09:41.092Z,101204.98
2019-05-30T20:12:13.869Z,101206.23
2019-05-30T20:14:50.318Z,101207.26
2019-05-30T20:17:22.790Z,101210.01
2019-05-30T20:19:55.369Z,101212.08
2019-05-30T20:22:28.368Z,101218.62
2019-05-30T20:25:01.363Z,101227.45
2019-05-30T20:27:34.664Z,101231.45
2019-05-30T20:30:11.182Z,101231.79
2019-05-30T20:32:43.806Z,101227.98
2019-05-30T20:35:17.013Z,101228.17
2019-05-30T20:37:49.569Z,101222.40
2019-05-30T20:40:22.515Z,101223.50
2019-05-30T20:42:55.546Z,101221.98
2019-05-30T20:45:28.743Z,101224.53
2019-05-30T20:48:01.626Z,101222.22
2019-05-30T20:50:35.040Z,101230.80
2019-05-30T20:53:07.703Z,101231.16
2019-05-30T20:55:42.445Z,101225.80
2019-05-30T20:58:14.989Z,101218.83
2019-05-30T21:00:47.928Z,101216.08
2019-05-30T21:03:21.500Z,101211.72
2019-05-30T21:05:55.473Z,101208.73
2019-05-30T21:08:28.078Z,101211.48
2019-05-30T21:11:03.228Z,101211.03
2019-05-30T21:13:36.259Z,101203.69
2019-05-30T21:16:13.420Z,101204.85
2019-05-30T21:18:47.035Z,101204.85
2019-05-30T21:21:19.565Z,101204.61
2019-05-30T21:23:52.451Z,101202.98
2019-05-30T21:26:25.336Z,101208.33
2019-05-30T21:28:58.219Z,101204.08
2019-05-30T21:31:31.032Z,101205.30
2019-05-30T21:34:04.299Z,101206.37
2019-05-30T21:36:37.705Z,101200.88
2019-05-30T21:39:11.371Z,101203.14
2019-05-30T21:41:44.544Z,101201.17
2019-05-30T21:44:18.132Z,101203.09
2019-05-30T21:46:50.577Z,101207.28
2019-05-30T21:49:23.349Z,101200.26
2019-05-30T21:51:56.105Z,101205.34
2019-05-30T21:54:29.030Z,101203.06
2019-05-30T21:57:01.670Z,101207.64
2019-05-30T21:59:34.253Z,101204.38
2019-05-30T22:02:07.338Z,101207.13
2019-05-30T22:04:40.481Z,101201.61
2019-05-30T22:07:13.132Z,101208.52
2019-05-30T22:09:45.956Z,101209.16
2019-05-30T22:12:18.877Z,101203.25
2019-05-30T22:14:52.008Z,101197.74
2019-05-30T22:17:24.545Z,101208.98
2019-05-30T22:19:57.654Z,101203.39
2019-05-30T22:22:30.543Z,101203.78
2019-05-30T22:25:03.521Z,101201.88
2019-05-30T22:27:35.996Z,101197.52
2019-05-30T22:30:09.497Z,101196.40
2019-05-30T22:32:42.622Z,101203.28
2019-05-30T22:35:15.539Z,101201.38
2019-05-30T22:37:51.048Z,101212.34
2019-05-30T22:40:24.533Z,101205.20
2019-05-30T22:42:57.200Z,101208.44
2019-05-30T22:45:29.772Z,101209.86
2019-05-30T22:48:02.758Z,101204.62
2019-05-30T22:50:35.633Z,101202.42
2019-05-30T22:53:08.103Z,101204.25
2019-05-30T22:55:40.830Z,101199.97
2019-05-30T22:58:13.586Z,101197.06
2019-05-30T23:00:46.350Z,101201.79
2019-05-30T23:03:19.059Z,101196.22
2019-05-30T23:05:51.729Z,101191.53
2019-05-30T23:08:24.512Z,101192.91
2019-05-30T23:10:57.273Z,101192.66
2019-05-30T23:13:39.980Z,101191.87
2019-05-30T23:16:04.292Z,101192.75
2019-05-30T23:18:36.867Z,101183.48
2019-05-30T23:21:09.546Z,101180.04
2019-05-30T23:23:42.119Z,101185.85
2019-05-30T23:26:15.107Z,101191.09
2019-05-30T23:28:47.791Z,101189.26
2019-05-30T23:31:20.283Z,101191.34
2019-05-30T23:33:52.840Z,101191.22
2019-05-30T23:36:25.604Z,101186.31
2019-05-30T23:38:58.915Z,101188.48
2019-05-30T23:41:31.579Z,101178.88
2019-05-30T23:44:11.136Z,101179.22
2019-05-30T23:46:38.550Z,101172.70
2019-05-30T23:49:11.069Z,101179.47
2019-05-30T23:51:43.750Z,101182.93
2019-05-30T23:54:16.343Z,101174.83
2019-05-30T23:56:50.395Z,101171.05
2019-05-30T23:59:23.203Z,101167.60
